createdAt,value
2022-12-15T00:02:04.729Z,-1.23
2022-12-15T00:04:56.104Z,-1.21
2022-12-15T00:07:46.009Z,-1.24
2022-12-15T00:10:36.188Z,-1.29
2022-12-15T00:13:31.121Z,-1.35
2022-12-15T00:16:19.434Z,-1.35
2022-12-15T00:19:09.579Z,-1.37
2022-12-15T00:21:59.522Z,-1.40
2022-12-15T00:24:49.594Z,-1.43
2022-12-15T00:27:40.164Z,-1.45
2022-12-15T00:30:31.162Z,-1.46
2022-12-15T00:33:25.736Z,-1.45
2022-12-15T00:36:16.654Z,-1.45
2022-12-15T00:38:49.286Z,-1.51
2022-12-15T00:41:21.678Z,-1.51
2022-12-15T00:43:53.702Z,-1.55
2022-12-15T00:46:45.566Z,-1.52
2022-12-15T00:49:31.714Z,-1.51
2022-12-15T00:52:21.688Z,-1.52
2022-12-15T00:55:11.503Z,-1.54
2022-12-15T00:58:02.696Z,-1.56
2022-12-15T01:00:52.451Z,-1.60
2022-12-15T01:03:43.413Z,-1.62
2022-12-15T01:06:35.494Z,-1.65
2022-12-15T01:09:27.658Z,-1.68
2022-12-15T01:12:17.150Z,-1.71
2022-12-15T01:15:07.154Z,-1.71
2022-12-15T01:17:57.064Z,-1.73
2022-12-15T01:20:32.772Z,-1.77
2022-12-15T01:23:04.942Z,-1.79
2022-12-15T01:25:41.998Z,-1.79
2022-12-15T01:28:14.175Z,-2.00
2022-12-15T01:30:46.784Z,-1.86
2022-12-15T01:33:20.233Z,-1.86
2022-12-15T01:36:00.815Z,-1.90
2022-12-15T01:38:33.224Z,-1.92
2022-12-15T01:41:10.860Z,-1.93
2022-12-15T01:43:46.334Z,-1.98
2022-12-15T01:46:23.693Z,-2.02
2022-12-15T01:49:04.140Z,-2.11
2022-12-15T01:51:40.787Z,-2.15
2022-12-15T01:54:16.274Z,-2.19
2022-12-15T01:56:51.918Z,-2.12
2022-12-15T01:59:28.216Z,-2.23
2022-12-15T02:02:01.495Z,-2.15
2022-12-15T02:04:34.864Z,-2.16
2022-12-15T02:07:07.388Z,-2.16
2022-12-15T02:09:39.939Z,-2.22
2022-12-15T02:12:21.764Z,-2.30
2022-12-15T02:15:12.113Z,-2.20
2022-12-15T02:17:52.413Z,-2.26
2022-12-15T02:20:42.283Z,-2.25
2022-12-15T02:23:57.428Z,-2.26
2022-12-15T02:26:59.299Z,-2.26
2022-12-15T02:30:00.635Z,-2.28
2022-12-15T02:32:41.992Z,-2.30
2022-12-15T02:35:21.878Z,-2.31
2022-12-15T02:37:54.678Z,-2.32
2022-12-15T02:40:27.185Z,-2.34
2022-12-15T02:43:03.009Z,-2.35
2022-12-15T02:45:44.377Z,-2.46
2022-12-15T02:48:29.135Z,-2.37
2022-12-15T02:51:13.437Z,-2.38
2022-12-15T02:54:04.515Z,-2.39
2022-12-15T02:56:43.771Z,-2.41
2022-12-15T02:59:26.771Z,-2.44
2022-12-15T03:02:02.283Z,-2.45
2022-12-15T03:04:35.141Z,-2.45
2022-12-15T03:07:10.176Z,-2.48
2022-12-15T03:09:43.545Z,-2.49
2022-12-15T03:12:16.176Z,-2.50
2022-12-15T03:14:48.597Z,-2.53
2022-12-15T03:17:21.102Z,-2.52
2022-12-15T03:19:53.281Z,-2.59
2022-12-15T03:22:25.817Z,-2.56
2022-12-15T03:24:57.931Z,-2.68
2022-12-15T03:27:30.248Z,-2.58
2022-12-15T03:30:02.462Z,-2.67
2022-12-15T03:32:34.548Z,-2.61
2022-12-15T03:35:08.089Z,-2.65
2022-12-15T03:37:41.519Z,-2.63
2022-12-15T03:40:15.470Z,-2.66
2022-12-15T03:42:50.956Z,-2.67
2022-12-15T03:45:24.501Z,-2.69
2022-12-15T03:47:57.950Z,-2.72
2022-12-15T03:50:31.531Z,-2.73
2022-12-15T03:53:05.878Z,-2.73
2022-12-15T03:55:38.370Z,-2.76
2022-12-15T03:58:10.552Z,-2.78
2022-12-15T04:00:42.820Z,-2.76
2022-12-15T04:03:15.022Z,-2.78
2022-12-15T04:05:47.430Z,-2.79
2022-12-15T04:08:26.972Z,-2.80
2022-12-15T04:11:00.022Z,-2.81
2022-12-15T04:13:32.857Z,-2.83
2022-12-15T04:16:05.927Z,-2.93
2022-12-15T04:18:38.308Z,-2.92
2022-12-15T04:21:10.799Z,-2.82
2022-12-15T04:24:00.592Z,-2.81
2022-12-15T04:26:50.507Z,-2.82
2022-12-15T04:29:40.298Z,-2.93
2022-12-15T04:32:30.239Z,-2.85
2022-12-15T04:35:20.266Z,-2.84
2022-12-15T04:38:10.059Z,-2.86
2022-12-15T04:41:00.356Z,-2.94
2022-12-15T04:43:50.752Z,-2.91
2022-12-15T04:46:40.631Z,-2.92
2022-12-15T04:49:30.242Z,-2.97
2022-12-15T04:52:20.107Z,-2.98
2022-12-15T04:55:10.069Z,-3.03
2022-12-15T04:58:00.270Z,-3.16
2022-12-15T05:00:49.951Z,-3.10
2022-12-15T05:03:39.808Z,-3.11
2022-12-15T05:06:32.273Z,-3.13
2022-12-15T05:09:22.392Z,-3.13
2022-12-15T05:12:12.733Z,-3.15
2022-12-15T05:15:03.162Z,-3.14
2022-12-15T05:17:52.852Z,-3.12
2022-12-15T05:20:43.511Z,-3.15
2022-12-15T05:23:33.446Z,-3.17
2022-12-15T05:26:23.608Z,-3.19
2022-12-15T05:29:13.472Z,-3.21
2022-12-15T05:31:51.965Z,-3.23
2022-12-15T05:34:26.985Z,-3.22
2022-12-15T05:37:00.519Z,-3.25
2022-12-15T05:39:33.080Z,-3.28
2022-12-15T05:42:06.103Z,-3.39
2022-12-15T05:44:38.499Z,-3.28
2022-12-15T05:47:13.829Z,-3.30
2022-12-15T05:49:47.963Z,-3.32
2022-12-15T05:52:20.201Z,-3.32
2022-12-15T05:54:52.387Z,-3.31
2022-12-15T05:57:24.747Z,-3.35
2022-12-15T05:59:57.366Z,-3.44
2022-12-15T06:02:31.054Z,-3.35
2022-12-15T06:05:03.861Z,-3.34
2022-12-15T06:07:36.348Z,-3.38
2022-12-15T06:10:12.296Z,-3.35
2022-12-15T06:12:47.181Z,-3.36
2022-12-15T06:15:20.984Z,-3.34
2022-12-15T06:17:55.903Z,-3.34
2022-12-15T06:20:28.255Z,-3.36
2022-12-15T06:23:00.431Z,-3.34
2022-12-15T06:25:32.731Z,-3.40
2022-12-15T06:28:05.083Z,-3.31
2022-12-15T06:30:38.671Z,-3.28
2022-12-15T06:33:10.803Z,-3.28
2022-12-15T06:35:44.046Z,-3.38
2022-12-15T06:38:21.971Z,-3.32
2022-12-15T06:41:00.630Z,-3.30
2022-12-15T06:43:34.458Z,-3.30
2022-12-15T06:46:07.511Z,-3.28
2022-12-15T06:48:42.533Z,-3.27
2022-12-15T06:51:20.297Z,-3.38
2022-12-15T06:53:54.400Z,-3.39
2022-12-15T06:56:34.090Z,-3.30
2022-12-15T06:59:08.717Z,-3.30
2022-12-15T07:01:49.853Z,-3.30
2022-12-15T07:04:22.274Z,-3.30
2022-12-15T07:06:54.411Z,-3.29
2022-12-15T07:09:30.207Z,-3.26
2022-12-15T07:12:02.442Z,-3.26
2022-12-15T07:14:34.628Z,-3.34
2022-12-15T07:17:07.189Z,-3.25
2022-12-15T07:19:42.568Z,-3.22
2022-12-15T07:22:17.989Z,-3.19
2022-12-15T07:24:50.278Z,-3.16
2022-12-15T07:27:22.974Z,-3.10
2022-12-15T07:29:55.475Z,-3.02
2022-12-15T07:32:27.805Z,-2.97
2022-12-15T07:35:05.431Z,-2.84
2022-12-15T07:37:38.320Z,-2.79
2022-12-15T07:40:13.756Z,-2.73
2022-12-15T07:42:49.936Z,-2.68
2022-12-15T07:45:22.217Z,-2.62
2022-12-15T07:47:54.283Z,-2.58
2022-12-15T07:50:29.404Z,-2.49
2022-12-15T07:53:03.478Z,-2.46
2022-12-15T07:56:05.105Z,-2.44
2022-12-15T07:58:33.838Z,-2.35
2022-12-15T08:01:09.060Z,-2.29
2022-12-15T08:03:50.759Z,-2.23
2022-12-15T08:06:23.192Z,-2.14
2022-12-15T08:08:58.425Z,-2.06
2022-12-15T08:11:34.648Z,-2.01
2022-12-15T08:14:11.953Z,-1.99
2022-12-15T08:16:48.588Z,-1.93
2022-12-15T08:19:20.893Z,-1.88
2022-12-15T08:21:53.627Z,-1.86
2022-12-15T08:24:29.710Z,-1.82
2022-12-15T08:27:03.160Z,-1.76
2022-12-15T08:29:52.234Z,-1.77
2022-12-15T08:32:29.652Z,-1.70
2022-12-15T08:35:02.284Z,-1.66
2022-12-15T08:37:35.085Z,-1.63
2022-12-15T08:40:09.238Z,-1.50
2022-12-15T08:42:43.927Z,-1.52
2022-12-15T08:45:16.498Z,-1.45
2022-12-15T08:47:48.892Z,-1.34
2022-12-15T08:50:21.469Z,-1.32
2022-12-15T08:53:21.318Z,-1.24
2022-12-15T08:55:50.904Z,-1.15
2022-12-15T08:58:24.111Z,-1.12
2022-12-15T09:01:03.067Z,-1.13
2022-12-15T09:03:38.007Z,-1.03
2022-12-15T09:06:22.733Z,-0.95
2022-12-15T09:09:04.390Z,-0.89
2022-12-15T09:11:42.327Z,-0.81
2022-12-15T09:14:14.812Z,-0.74
2022-12-15T09:16:50.720Z,-0.62
2022-12-15T09:19:23.045Z,-0.57
2022-12-15T09:21:55.789Z,-0.55
2022-12-15T09:24:34.978Z,-0.58
2022-12-15T09:27:08.157Z,-0.61
2022-12-15T09:29:40.881Z,-0.52
2022-12-15T09:32:14.565Z,-0.44
2022-12-15T09:34:46.836Z,-0.35
2022-12-15T09:37:19.070Z,-0.27
2022-12-15T09:39:51.308Z,-0.26
2022-12-15T09:42:33.091Z,-0.19
2022-12-15T09:45:18.355Z,-0.19
2022-12-15T09:47:55.071Z,-0.11
2022-12-15T09:50:35.883Z,-0.07
2022-12-15T09:53:45.619Z,-0.23
2022-12-15T09:56:09.641Z,0.03
2022-12-15T09:58:53.211Z,0.15
2022-12-15T10:01:33.754Z,0.05
2022-12-15T10:04:17.760Z,0.16
2022-12-15T10:06:56.163Z,0.29
2022-12-15T10:09:29.932Z,0.37
2022-12-15T10:12:04.615Z,0.39
2022-12-15T10:14:42.652Z,0.39
2022-12-15T10:17:24.143Z,0.50
2022-12-15T10:20:07.702Z,0.53
2022-12-15T10:22:40.569Z,0.55
2022-12-15T10:25:27.430Z,0.60
2022-12-15T10:28:20.102Z,0.37
2022-12-15T10:30:59.483Z,0.36
2022-12-15T10:33:36.154Z,0.57
2022-12-15T10:36:13.648Z,0.68
2022-12-15T10:41:40.268Z,0.83
2022-12-15T10:44:32.046Z,0.86
2022-12-15T10:47:12.203Z,0.92
2022-12-15T10:49:44.308Z,0.94
2022-12-15T10:52:25.344Z,0.97
2022-12-15T10:54:58.171Z,0.98
2022-12-15T10:57:33.668Z,0.96
2022-12-15T11:00:30.065Z,1.00
2022-12-15T11:03:02.543Z,1.03
2022-12-15T11:05:36.140Z,1.06
2022-12-15T11:08:18.791Z,1.07
2022-12-15T11:11:12.675Z,1.09
2022-12-15T11:14:04.723Z,0.96
2022-12-15T11:16:44.002Z,1.05
2022-12-15T11:19:23.439Z,1.10
2022-12-15T11:22:01.164Z,0.93
2022-12-15T11:24:40.111Z,1.01
2022-12-15T11:27:24.251Z,0.96
2022-12-15T11:30:04.095Z,1.03
2022-12-15T11:32:38.810Z,0.89
2022-12-15T11:35:15.126Z,0.72
2022-12-15T11:37:49.376Z,0.89
2022-12-15T11:40:39.174Z,0.61
2022-12-15T11:43:35.606Z,0.75
2022-12-15T11:46:22.786Z,0.65
2022-12-15T11:49:28.125Z,0.69
2022-12-15T11:52:08.423Z,0.61
2022-12-15T11:54:48.380Z,0.58
2022-12-15T11:57:46.649Z,0.45
2022-12-15T12:00:24.144Z,0.64
2022-12-15T12:03:09.467Z,0.79
2022-12-15T12:07:42.176Z,0.84
2022-12-15T12:10:32.304Z,0.84
2022-12-15T12:13:14.368Z,0.76
2022-12-15T12:15:56.869Z,0.76
2022-12-15T12:18:36.224Z,0.73
2022-12-15T12:21:12.108Z,0.82
2022-12-15T12:23:50.867Z,0.64
2022-12-15T12:26:33.474Z,0.68
2022-12-15T12:29:13.389Z,0.58
2022-12-15T12:32:04.017Z,0.50
2022-12-15T12:35:31.676Z,0.39
2022-12-15T12:37:56.928Z,0.67
2022-12-15T12:40:38.255Z,0.65
2022-12-15T12:43:14.055Z,0.60
2022-12-15T12:46:10.271Z,0.56
2022-12-15T12:48:48.564Z,0.60
2022-12-15T12:51:27.830Z,0.92
2022-12-15T12:54:01.489Z,0.82
2022-12-15T12:56:37.910Z,1.00
2022-12-15T12:59:38.133Z,0.90
2022-12-15T13:02:45.492Z,0.96
2022-12-15T13:05:37.345Z,0.79
2022-12-15T13:08:40.460Z,0.66
2022-12-15T13:11:58.649Z,0.74
2022-12-15T13:14:44.847Z,0.82
2022-12-15T13:17:29.163Z,0.80
2022-12-15T13:20:28.746Z,0.73
2022-12-15T13:23:34.731Z,0.65
2022-12-15T13:26:22.254Z,0.73
2022-12-15T13:28:59.368Z,0.75
2022-12-15T13:31:42.444Z,0.64
2022-12-15T13:34:37.153Z,0.77
2022-12-15T13:37:49.222Z,0.74
2022-12-15T13:40:50.750Z,0.80
2022-12-15T13:43:43.964Z,0.78
2022-12-15T13:46:24.612Z,0.70
2022-12-15T13:49:10.586Z,0.76
2022-12-15T13:51:51.653Z,0.79
2022-12-15T13:54:32.303Z,0.68
2022-12-15T13:57:10.956Z,0.72
2022-12-15T13:59:49.571Z,0.78
2022-12-15T14:02:30.348Z,0.72
2022-12-15T14:05:17.361Z,0.62
2022-12-15T14:07:54.802Z,0.51
2022-12-15T14:10:37.261Z,0.45
2022-12-15T14:13:17.338Z,0.57
2022-12-15T14:15:52.904Z,0.61
2022-12-15T14:18:31.842Z,0.54
2022-12-15T14:21:06.789Z,0.70
2022-12-15T14:23:58.021Z,0.75
2022-12-15T14:26:37.187Z,0.78
2022-12-15T14:29:11.703Z,0.76
2022-12-15T14:31:42.470Z,0.79
2022-12-15T14:34:19.876Z,0.70
2022-12-15T14:36:52.732Z,0.77
2022-12-15T14:39:27.973Z,0.76
2022-12-15T14:42:02.549Z,0.77
2022-12-15T14:44:38.666Z,0.76
2022-12-15T14:47:21.403Z,0.78
2022-12-15T14:49:54.860Z,0.79
2022-12-15T14:52:34.013Z,0.78
2022-12-15T14:55:27.569Z,0.61
2022-12-15T14:58:00.115Z,0.65
2022-12-15T15:00:34.611Z,0.70
2022-12-15T15:03:09.887Z,0.75
2022-12-15T15:06:05.147Z,0.67
2022-12-15T15:08:44.684Z,0.73
2022-12-15T15:11:29.971Z,0.66
2022-12-15T15:14:06.323Z,0.46
2022-12-15T15:16:38.927Z,0.50
2022-12-15T15:19:22.258Z,0.56
2022-12-15T15:21:54.501Z,0.57
2022-12-15T15:24:31.008Z,0.54
2022-12-15T15:27:27.928Z,0.56
2022-12-15T15:30:18.266Z,0.60
2022-12-15T15:32:58.760Z,0.60
2022-12-15T15:35:35.231Z,0.54
2022-12-15T15:38:21.620Z,0.57
2022-12-15T15:40:56.565Z,0.55
2022-12-15T15:43:30.579Z,0.48
2022-12-15T15:46:07.271Z,0.47
2022-12-15T15:48:49.152Z,0.53
2022-12-15T15:51:21.858Z,0.45
2022-12-15T15:53:54.871Z,0.48
2022-12-15T15:56:28.011Z,0.41
2022-12-15T15:59:00.584Z,0.36
2022-12-15T16:01:32.951Z,0.41
2022-12-15T16:04:06.851Z,0.36
2022-12-15T16:06:45.155Z,0.35
2022-12-15T16:09:19.391Z,0.43
2022-12-15T16:11:52.483Z,0.49
2022-12-15T16:14:25.151Z,0.52
2022-12-15T16:16:58.413Z,0.45
2022-12-15T16:19:33.818Z,0.59
2022-12-15T16:22:14.841Z,0.62
2022-12-15T16:24:47.776Z,0.55
2022-12-15T16:27:20.129Z,0.55
2022-12-15T16:29:52.290Z,0.51
2022-12-15T16:32:24.509Z,0.42
2022-12-15T16:34:56.793Z,0.37
2022-12-15T16:37:34.798Z,0.38
2022-12-15T16:40:22.114Z,0.38
2022-12-15T16:43:00.713Z,0.47
2022-12-15T16:45:34.079Z,0.45
2022-12-15T16:48:06.574Z,0.29
2022-12-15T16:50:41.479Z,0.43
2022-12-15T16:53:19.324Z,0.37
2022-12-15T16:55:54.691Z,0.27
2022-12-15T16:58:29.272Z,0.32
2022-12-15T17:01:01.861Z,0.32
2022-12-15T17:03:34.432Z,0.24
2022-12-15T17:06:09.577Z,0.22
2022-12-15T17:08:44.786Z,-0.07
2022-12-15T17:11:20.388Z,0.01
2022-12-15T17:13:55.003Z,0.21
2022-12-15T17:16:29.553Z,0.16
2022-12-15T17:19:01.890Z,0.19
2022-12-15T17:21:36.831Z,0.21
2022-12-15T17:24:15.323Z,0.15
2022-12-15T17:26:48.329Z,0.15
2022-12-15T17:29:23.445Z,0.06
2022-12-15T17:31:55.608Z,0.25
2022-12-15T17:34:33.871Z,0.19
2022-12-15T17:37:12.555Z,0.21
2022-12-15T17:39:51.090Z,0.23
2022-12-15T17:42:23.784Z,0.36
2022-12-15T17:44:55.992Z,0.35
2022-12-15T17:47:30.608Z,0.34
2022-12-15T17:50:02.841Z,0.31
2022-12-15T17:52:35.654Z,0.27
2022-12-15T17:55:19.555Z,0.23
2022-12-15T17:57:54.698Z,0.19
2022-12-15T18:00:29.607Z,0.16
2022-12-15T18:03:03.710Z,0.04
2022-12-15T18:05:36.422Z,0.06
2022-12-15T18:08:16.490Z,0.04
2022-12-15T18:10:51.170Z,-0.07
2022-12-15T18:13:27.887Z,-0.02
2022-12-15T18:16:02.051Z,-0.08
2022-12-15T18:18:35.254Z,-0.11
2022-12-15T18:21:16.126Z,-0.12
2022-12-15T18:23:48.535Z,-0.14
2022-12-15T18:26:21.324Z,-0.15
2022-12-15T18:28:53.688Z,-0.21
2022-12-15T18:31:28.303Z,-0.25
2022-12-15T18:34:04.442Z,-0.32
2022-12-15T18:36:37.741Z,-0.35
2022-12-15T18:39:19.852Z,-0.38
2022-12-15T18:41:54.656Z,-0.39
2022-12-15T18:44:29.776Z,-0.40
2022-12-15T18:47:02.848Z,-0.44
2022-12-15T18:49:35.548Z,-0.46
2022-12-15T18:52:11.189Z,-0.52
2022-12-15T18:54:43.357Z,-0.58
2022-12-15T18:57:28.734Z,-0.64
2022-12-15T19:00:04.885Z,-0.67
2022-12-15T19:02:37.349Z,-0.72
2022-12-15T19:05:27.521Z,-0.88
2022-12-15T19:08:04.048Z,-0.87
2022-12-15T19:10:37.933Z,-0.96
2022-12-15T19:13:16.658Z,-1.02
2022-12-15T19:15:49.012Z,-1.09
2022-12-15T19:18:40.475Z,-1.15
2022-12-15T19:21:39.294Z,-1.18
2022-12-15T19:24:14.366Z,-1.22
2022-12-15T19:26:46.675Z,-1.24
2022-12-15T19:29:22.295Z,-1.31
2022-12-15T19:31:55.161Z,-1.33
2022-12-15T19:34:28.469Z,-1.40
2022-12-15T19:37:02.008Z,-1.43
2022-12-15T19:39:37.189Z,-1.44
2022-12-15T19:42:19.304Z,-1.43
2022-12-15T19:44:52.360Z,-1.45
2022-12-15T19:47:24.571Z,-1.44
2022-12-15T19:49:56.906Z,-1.44
2022-12-15T19:52:30.023Z,-1.44
2022-12-15T19:55:02.404Z,-1.45
2022-12-15T19:57:35.050Z,-1.48
2022-12-15T20:00:17.172Z,-1.52
2022-12-15T20:02:51.449Z,-1.53
2022-12-15T20:05:26.622Z,-1.55
2022-12-15T20:08:00.341Z,-1.61
2022-12-15T20:10:33.132Z,-1.62
2022-12-15T20:13:07.621Z,-1.68
2022-12-15T20:15:38.444Z,-1.79
2022-12-15T20:18:11.724Z,-1.73
2022-12-15T20:20:47.364Z,-1.80
2022-12-15T20:23:23.843Z,-1.83
2022-12-15T20:25:57.081Z,-1.87
2022-12-15T20:28:31.148Z,-1.91
2022-12-15T20:31:03.907Z,-1.96
2022-12-15T20:33:37.078Z,-1.98
2022-12-15T20:36:14.493Z,-1.99
2022-12-15T20:38:47.605Z,-2.02
2022-12-15T20:41:22.729Z,-2.05
2022-12-15T20:43:56.674Z,-2.22
2022-12-15T20:46:35.035Z,-2.13
2022-12-15T20:49:14.736Z,-2.11
2022-12-15T20:51:49.151Z,-2.16
2022-12-15T20:54:23.797Z,-2.19
2022-12-15T20:56:54.889Z,-2.17
2022-12-15T20:59:27.313Z,-2.16
2022-12-15T21:01:59.858Z,-2.27
2022-12-15T21:04:33.547Z,-2.18
2022-12-15T21:07:07.290Z,-2.19
2022-12-15T21:09:39.786Z,-2.19
2022-12-15T21:12:19.663Z,-2.18
2022-12-15T21:14:52.308Z,-2.16
2022-12-15T21:17:25.896Z,-2.15
2022-12-15T21:19:58.075Z,-2.19
2022-12-15T21:22:31.074Z,-2.20
2022-12-15T21:25:04.228Z,-2.21
2022-12-15T21:27:36.712Z,-2.21
2022-12-15T21:30:20.605Z,-2.31
2022-12-15T21:32:53.698Z,-2.25
2022-12-15T21:35:30.314Z,-2.31
2022-12-15T21:38:04.568Z,-2.32
2022-12-15T21:40:36.863Z,-2.34
2022-12-15T21:43:10.851Z,-2.37
2022-12-15T21:45:43.188Z,-2.42
2022-12-15T21:48:34.066Z,-2.43
2022-12-15T21:51:06.901Z,-2.43
2022-12-15T21:53:39.429Z,-2.40
2022-12-15T21:56:17.485Z,-2.43
2022-12-15T21:58:52.634Z,-2.42
2022-12-15T22:01:30.265Z,-2.44
2022-12-15T22:04:06.699Z,-2.42
2022-12-15T22:06:39.128Z,-2.39
2022-12-15T22:09:13.595Z,-2.42
2022-12-15T22:11:46.032Z,-2.36
2022-12-15T22:14:25.302Z,-2.33
2022-12-15T22:16:58.739Z,-2.30
2022-12-15T22:19:30.951Z,-2.36
2022-12-15T22:22:03.216Z,-2.28
2022-12-15T22:24:35.400Z,-2.23
2022-12-15T22:27:15.735Z,-2.24
2022-12-15T22:29:48.653Z,-2.34
2022-12-15T22:32:20.906Z,-2.22
2022-12-15T22:34:53.567Z,-2.21
2022-12-15T22:37:25.700Z,-2.20
2022-12-15T22:39:57.929Z,-2.20
2022-12-15T22:42:30.812Z,-2.20
2022-12-15T22:45:03.297Z,-2.22
2022-12-15T22:47:38.774Z,-2.26
2022-12-15T22:50:18.839Z,-2.33
2022-12-15T22:52:51.398Z,-2.82
2022-12-15T22:55:24.756Z,-2.30
2022-12-15T22:58:03.276Z,-2.33
2022-12-15T23:00:35.388Z,-2.34
2022-12-15T23:03:09.331Z,-2.40
2022-12-15T23:05:43.744Z,-2.42
2022-12-15T23:08:16.471Z,-2.55
2022-12-15T23:11:06.150Z,-2.57
2022-12-15T23:13:38.429Z,-2.49
2022-12-15T23:16:23.322Z,-2.53
2022-12-15T23:18:57.197Z,-2.53
2022-12-15T23:21:30.093Z,-2.55
2022-12-15T23:24:03.239Z,-2.58
2022-12-15T23:26:35.423Z,-2.58
2022-12-15T23:29:08.152Z,-2.57
2022-12-15T23:31:40.377Z,-2.59
2022-12-15T23:34:13.261Z,-2.61
2022-12-15T23:36:47.599Z,-2.58
2022-12-15T23:39:20.565Z,-2.59
2022-12-15T23:41:53.141Z,-2.58
2022-12-15T23:44:25.552Z,-2.55
2022-12-15T23:46:58.420Z,-2.53
2022-12-15T23:49:31.029Z,-2.53
2022-12-15T23:52:03.250Z,-2.56
2022-12-15T23:54:35.669Z,-2.56
2022-12-15T23:57:07.858Z,-2.56
2022-12-15T23:59:40.941Z,-2.56
